createdAt,value
2022-11-14T00:00:12.880Z,57.17
2022-11-14T00:02:43.345Z,51.67
2022-11-14T00:05:11.745Z,59.72
2022-11-14T00:07:39.823Z,65.28
2022-11-14T00:10:07.833Z,55.05
2022-11-14T00:12:34.839Z,57.17
2022-11-14T00:15:03.665Z,56.83
2022-11-14T00:17:33.006Z,60.13
2022-11-14T00:19:59.905Z,69.22
2022-11-14T00:22:28.440Z,66.97
2022-11-14T00:24:55.251Z,78.53
2022-11-14T00:27:23.310Z,60.50
2022-11-14T00:29:50.686Z,60.30
2022-11-14T00:32:25.668Z,60.85
2022-11-14T00:34:55.046Z,65.25
2022-11-14T00:37:29.553Z,56.25
2022-11-14T00:39:57.480Z,61.55
2022-11-14T00:42:24.327Z,66.32
2022-11-14T00:44:53.886Z,66.15
2022-11-14T00:47:24.786Z,68.57
2022-11-14T00:49:58.660Z,60.30
2022-11-14T00:52:26.016Z,59.38
2022-11-14T00:55:01.599Z,60.72
2022-11-14T00:57:31.518Z,59.85
2022-11-14T00:59:58.336Z,57.05
2022-11-14T01:02:25.613Z,54.83
2022-11-14T01:04:52.941Z,61.20
2022-11-14T01:07:20.272Z,66.15
2022-11-14T01:09:48.662Z,60.30
2022-11-14T01:12:16.952Z,62.83
2022-11-14T01:14:45.279Z,58.65
2022-11-14T01:17:12.705Z,57.20
2022-11-14T01:19:39.716Z,61.17
2022-11-14T01:22:07.122Z,53.75
2022-11-14T01:24:34.653Z,53.50
2022-11-14T01:27:03.913Z,59.30
2022-11-14T01:29:32.112Z,64.50
2022-11-14T01:31:59.569Z,56.25
2022-11-14T01:34:26.803Z,60.00
2022-11-14T01:36:54.208Z,55.35
2022-11-14T01:39:24.871Z,63.88
2022-11-14T01:41:54.798Z,53.42
2022-11-14T01:44:51.672Z,58.50
2022-11-14T01:47:25.609Z,64.18
2022-11-14T01:49:59.529Z,63.55
2022-11-14T01:52:36.042Z,71.68
2022-11-14T01:55:08.341Z,62.83
2022-11-14T01:57:39.984Z,66.22
2022-11-14T02:00:11.772Z,71.13
2022-11-14T02:02:41.606Z,69.13
2022-11-14T02:05:12.389Z,71.15
2022-11-14T02:07:40.777Z,85.40
2022-11-14T02:10:13.901Z,77.97
2022-11-14T02:12:41.298Z,82.57
2022-11-14T02:15:10.048Z,92.90
2022-11-14T02:17:37.752Z,89.72
2022-11-14T02:20:11.265Z,84.20
2022-11-14T02:22:41.018Z,82.43
2022-11-14T02:25:12.361Z,88.80
2022-11-14T02:27:42.328Z,83.15
2022-11-14T02:30:12.929Z,84.05
2022-11-14T02:33:08.723Z,78.18
2022-11-14T02:35:28.230Z,84.55
2022-11-14T02:37:55.607Z,87.70
2022-11-14T02:40:22.577Z,75.20
2022-11-14T02:42:49.705Z,89.07
2022-11-14T02:45:18.034Z,75.28
2022-11-14T02:47:44.822Z,89.88
2022-11-14T02:50:11.732Z,89.63
2022-11-14T02:52:39.256Z,86.13
2022-11-14T02:55:07.907Z,92.15
2022-11-14T02:57:35.476Z,93.78
2022-11-14T03:00:13.324Z,82.70
2022-11-14T03:02:42.087Z,93.93
2022-11-14T03:05:09.472Z,108.82
2022-11-14T03:07:40.916Z,97.28
2022-11-14T03:10:09.711Z,98.93
2022-11-14T03:12:37.571Z,117.28
2022-11-14T03:15:08.287Z,100.65
2022-11-14T03:17:36.086Z,96.63
2022-11-14T03:20:03.613Z,96.57
2022-11-14T03:22:33.160Z,107.88
2022-11-14T03:25:01.465Z,93.32
2022-11-14T03:27:31.000Z,94.22
2022-11-14T03:29:58.101Z,88.47
2022-11-14T03:32:25.460Z,91.40
2022-11-14T03:34:53.315Z,86.25
2022-11-14T03:37:21.660Z,79.88
2022-11-14T03:39:49.120Z,92.97
2022-11-14T03:42:16.212Z,83.82
2022-11-14T03:44:44.611Z,97.72
2022-11-14T03:47:11.356Z,94.53
2022-11-14T03:49:38.820Z,89.70
2022-11-14T03:52:05.747Z,81.68
2022-11-14T03:54:33.698Z,90.13
2022-11-14T03:57:01.526Z,85.60
2022-11-14T03:59:29.934Z,84.43
2022-11-14T04:01:57.214Z,88.78
2022-11-14T04:04:24.176Z,90.15
2022-11-14T04:07:32.237Z,93.70
2022-11-14T04:10:00.088Z,81.32
2022-11-14T04:12:28.442Z,88.82
2022-11-14T04:14:59.145Z,95.10
2022-11-14T04:17:29.017Z,88.90
2022-11-14T04:19:58.978Z,85.53
2022-11-14T04:22:26.277Z,77.30
2022-11-14T04:24:53.579Z,89.70
2022-11-14T04:27:20.352Z,82.93
2022-11-14T04:29:47.593Z,76.00
2022-11-14T04:32:18.805Z,73.80
2022-11-14T04:34:47.736Z,68.18
2022-11-14T04:37:14.882Z,63.17
2022-11-14T04:39:42.166Z,60.80
2022-11-14T04:42:08.994Z,61.72
2022-11-14T04:44:42.994Z,60.80
2022-11-14T04:47:11.068Z,64.78
2022-11-14T04:49:38.647Z,59.63
2022-11-14T04:52:07.052Z,61.50
2022-11-14T04:54:36.804Z,59.88
2022-11-14T04:57:04.192Z,61.13
2022-11-14T04:59:31.182Z,67.13
2022-11-14T05:02:07.151Z,66.30
2022-11-14T05:04:34.084Z,65.15
2022-11-14T05:07:01.395Z,72.15
2022-11-14T05:09:28.607Z,69.15
2022-11-14T05:11:57.986Z,72.25
2022-11-14T05:14:25.057Z,74.95
2022-11-14T05:16:52.806Z,81.47
2022-11-14T05:19:20.341Z,70.70
2022-11-14T05:21:54.437Z,81.85
2022-11-14T05:24:25.821Z,89.15
2022-11-14T05:26:55.594Z,86.57
2022-11-14T05:29:22.955Z,99.70
2022-11-14T05:31:51.672Z,96.13
2022-11-14T05:34:20.270Z,99.97
2022-11-14T05:36:47.189Z,95.40
2022-11-14T05:39:16.115Z,79.32
2022-11-14T05:41:43.015Z,80.28
2022-11-14T05:44:10.928Z,95.15
2022-11-14T05:46:41.103Z,88.75
2022-11-14T05:49:08.398Z,90.07
2022-11-14T05:51:36.110Z,92.85
2022-11-14T05:54:05.042Z,102.93
2022-11-14T05:56:31.863Z,97.95
2022-11-14T05:59:00.708Z,100.88
2022-11-14T06:01:28.782Z,85.15
2022-11-14T06:03:56.257Z,77.68
2022-11-14T06:06:23.434Z,63.10
2022-11-14T06:08:52.936Z,69.35
2022-11-14T06:11:21.894Z,64.80
2022-11-14T06:13:52.401Z,66.05
2022-11-14T06:16:23.048Z,68.95
2022-11-14T06:18:56.415Z,63.22
2022-11-14T06:21:28.182Z,65.82
2022-11-14T06:23:56.129Z,62.88
2022-11-14T06:26:26.310Z,67.38
2022-11-14T06:28:54.007Z,61.60
2022-11-14T06:31:22.300Z,64.13
2022-11-14T06:33:49.816Z,57.22
2022-11-14T06:36:17.346Z,61.72
2022-11-14T06:38:45.495Z,62.08
2022-11-14T06:41:18.846Z,63.50
2022-11-14T06:43:48.208Z,62.53
2022-11-14T06:46:18.535Z,67.43
2022-11-14T06:48:47.953Z,65.65
2022-11-14T06:51:17.872Z,62.72
2022-11-14T06:53:45.422Z,61.88
2022-11-14T06:56:20.912Z,58.97
2022-11-14T06:58:49.970Z,60.60
2022-11-14T07:01:20.045Z,63.05
2022-11-14T07:03:49.548Z,58.92
2022-11-14T07:06:27.044Z,57.67
2022-11-14T07:08:56.950Z,60.38
2022-11-14T07:11:30.069Z,65.63
2022-11-14T07:14:01.697Z,63.70
2022-11-14T07:16:37.929Z,64.00
2022-11-14T07:19:10.426Z,58.85
2022-11-14T07:21:42.853Z,64.97
2022-11-14T07:24:09.674Z,64.18
2022-11-14T07:26:46.401Z,60.60
2022-11-14T07:29:39.839Z,61.25
2022-11-14T07:32:10.564Z,58.17
2022-11-14T07:34:38.171Z,56.90
2022-11-14T07:37:05.397Z,59.80
2022-11-14T07:39:36.187Z,58.17
2022-11-14T07:42:30.662Z,55.25
2022-11-14T07:45:03.426Z,55.63
2022-11-14T07:47:40.796Z,59.00
2022-11-14T07:50:09.388Z,60.60
2022-11-14T07:52:37.773Z,66.18
2022-11-14T07:55:05.543Z,62.67
2022-11-14T07:57:43.914Z,59.10
2022-11-14T08:00:18.069Z,60.58
2022-11-14T08:02:48.009Z,53.90
2022-11-14T08:05:20.759Z,50.20
2022-11-14T08:07:52.865Z,53.90
2022-11-14T08:10:26.109Z,54.13
2022-11-14T08:16:13.927Z,53.70
2022-11-14T08:21:34.046Z,54.10
2022-11-14T08:26:49.080Z,48.33
2022-11-14T08:29:46.621Z,50.05
2022-11-14T08:32:16.728Z,50.92
2022-11-14T08:34:49.677Z,48.83
2022-11-14T08:37:19.758Z,45.20
2022-11-14T08:39:50.093Z,46.30
2022-11-14T08:42:17.777Z,46.90
2022-11-14T08:44:51.662Z,42.58
2022-11-14T08:47:23.944Z,44.55
2022-11-14T08:49:51.267Z,41.20
2022-11-14T08:52:23.289Z,44.10
2022-11-14T08:54:57.388Z,44.13
2022-11-14T08:57:28.071Z,43.83
2022-11-14T08:59:56.147Z,45.67
2022-11-14T09:02:23.856Z,39.78
2022-11-14T09:04:53.582Z,38.05
2022-11-14T09:07:22.256Z,37.97
2022-11-14T09:09:51.343Z,43.17
2022-11-14T09:12:25.536Z,41.50
2022-11-14T09:14:52.419Z,42.47
2022-11-14T09:17:19.674Z,44.60
2022-11-14T09:19:48.835Z,39.70
2022-11-14T09:22:17.059Z,42.25
2022-11-14T09:24:47.556Z,45.28
2022-11-14T09:27:15.126Z,43.92
2022-11-14T09:29:41.958Z,48.55
2022-11-14T09:32:10.115Z,42.97
2022-11-14T09:34:38.135Z,44.28
2022-11-14T09:37:05.763Z,40.15
2022-11-14T09:39:38.457Z,43.30
2022-11-14T09:42:23.827Z,42.72
2022-11-14T09:45:02.980Z,44.33
2022-11-14T09:47:33.270Z,48.10
2022-11-14T09:50:09.010Z,39.80
2022-11-14T09:52:46.299Z,38.83
2022-11-14T09:55:18.267Z,36.92
2022-11-14T09:57:54.163Z,37.67
2022-11-14T10:00:26.589Z,38.60
2022-11-14T10:03:14.468Z,33.33
2022-11-14T10:05:58.544Z,37.38
2022-11-14T10:09:03.021Z,36.85
2022-11-14T10:11:39.766Z,41.50
2022-11-14T10:14:44.556Z,36.30
2022-11-14T10:17:19.180Z,35.83
2022-11-14T10:20:23.450Z,35.85
2022-11-14T10:23:01.690Z,37.97
2022-11-14T10:25:44.279Z,29.75
2022-11-14T10:28:24.803Z,30.60
2022-11-14T10:31:36.327Z,34.33
2022-11-14T10:34:14.704Z,33.38
2022-11-14T10:37:06.127Z,31.80
2022-11-14T10:39:42.685Z,29.13
2022-11-14T10:42:43.007Z,34.35
2022-11-14T10:45:40.139Z,30.45
2022-11-14T10:48:15.997Z,31.80
2022-11-14T10:50:56.655Z,31.75
2022-11-14T10:53:47.716Z,31.70
2022-11-14T10:56:18.961Z,29.63
2022-11-14T10:58:49.587Z,31.67
2022-11-14T11:01:54.497Z,29.98
2022-11-14T11:04:34.432Z,29.60
2022-11-14T11:07:14.425Z,29.80
2022-11-14T11:09:59.788Z,31.88
2022-11-14T11:12:50.954Z,30.33
2022-11-14T11:15:22.379Z,32.75
2022-11-14T11:18:24.018Z,28.42
2022-11-14T11:21:10.464Z,29.65
2022-11-14T11:23:54.155Z,27.88
2022-11-14T11:26:25.596Z,30.98
2022-11-14T11:29:20.877Z,29.40
2022-11-14T11:31:48.550Z,28.85
2022-11-14T11:34:15.965Z,30.00
2022-11-14T11:36:53.934Z,26.65
2022-11-14T11:39:29.672Z,28.35
2022-11-14T11:42:09.412Z,28.42
2022-11-14T11:44:45.972Z,29.55
2022-11-14T11:47:17.478Z,28.05
2022-11-14T11:49:54.660Z,26.55
2022-11-14T11:52:38.544Z,30.50
2022-11-14T11:55:24.439Z,27.02
2022-11-14T11:58:13.937Z,27.25
2022-11-14T12:00:41.201Z,25.02
2022-11-14T12:03:20.190Z,27.80
2022-11-14T12:06:18.603Z,25.92
2022-11-14T12:09:22.635Z,25.98
2022-11-14T12:11:59.189Z,22.17
2022-11-14T12:14:58.359Z,22.52
2022-11-14T12:17:32.385Z,25.02
2022-11-14T12:20:21.449Z,23.10
2022-11-14T12:23:14.562Z,25.58
2022-11-14T12:26:09.381Z,25.20
2022-11-14T12:28:46.177Z,22.40
2022-11-14T12:31:17.263Z,23.25
2022-11-14T12:33:57.839Z,23.23
2022-11-14T12:36:35.024Z,23.60
2022-11-14T12:39:03.092Z,26.15
2022-11-14T12:41:37.141Z,22.95
2022-11-14T12:44:20.944Z,24.80
2022-11-14T12:47:06.615Z,22.30
2022-11-14T12:49:39.877Z,23.05
2022-11-14T12:52:46.427Z,23.02
2022-11-14T12:55:25.356Z,23.05
2022-11-14T12:58:12.287Z,25.65
2022-11-14T13:01:18.279Z,22.67
2022-11-14T13:04:09.755Z,24.55
2022-11-14T13:06:51.395Z,21.85
2022-11-14T13:09:24.472Z,23.23
2022-11-14T13:12:13.551Z,23.75
2022-11-14T13:15:15.895Z,23.27
2022-11-14T13:18:04.418Z,23.52
2022-11-14T13:21:03.663Z,25.98
2022-11-14T13:23:47.502Z,24.05
2022-11-14T13:26:15.206Z,22.70
2022-11-14T13:28:54.540Z,26.75
2022-11-14T13:31:36.737Z,25.05
2022-11-14T13:34:40.431Z,22.65
2022-11-14T13:37:23.443Z,23.88
2022-11-14T13:40:24.989Z,23.33
2022-11-14T13:43:34.186Z,23.40
2022-11-14T13:46:49.649Z,22.20
2022-11-14T13:49:49.501Z,22.02
2022-11-14T13:52:17.588Z,21.85
2022-11-14T13:54:52.515Z,24.95
2022-11-14T13:57:45.396Z,22.58
2022-11-14T14:00:21.614Z,23.08
2022-11-14T14:03:10.943Z,22.65
2022-11-14T14:06:12.722Z,23.58
2022-11-14T14:09:01.215Z,23.02
2022-11-14T14:11:50.931Z,24.27
2022-11-14T14:14:57.543Z,24.35
2022-11-14T14:18:09.047Z,24.60
2022-11-14T14:20:56.774Z,23.33
2022-11-14T14:23:36.564Z,23.85
2022-11-14T14:26:28.085Z,21.75
2022-11-14T14:29:21.844Z,26.15
2022-11-14T14:31:50.338Z,20.67
2022-11-14T14:34:32.643Z,23.25
2022-11-14T14:36:59.983Z,23.63
2022-11-14T14:39:33.233Z,25.15
2022-11-14T14:42:00.882Z,24.27
2022-11-14T14:44:49.182Z,21.30
2022-11-14T14:47:41.623Z,22.05
2022-11-14T14:50:26.742Z,26.27
2022-11-14T14:53:05.618Z,24.13
2022-11-14T14:55:36.380Z,24.58
2022-11-14T14:58:35.148Z,24.67
2022-11-14T15:04:06.214Z,25.90
2022-11-14T15:06:38.769Z,24.58
2022-11-14T15:09:21.145Z,23.63
2022-11-14T15:12:04.402Z,24.23
2022-11-14T15:14:40.266Z,24.88
2022-11-14T15:19:59.330Z,25.80
2022-11-14T15:22:37.745Z,26.00
2022-11-14T15:25:24.617Z,28.05
2022-11-14T15:28:13.029Z,26.10
2022-11-14T15:31:16.229Z,29.23
2022-11-14T15:33:47.407Z,26.60
2022-11-14T15:36:22.653Z,26.05
2022-11-14T15:39:42.827Z,28.85
2022-11-14T15:42:31.583Z,27.35
2022-11-14T15:45:10.173Z,25.27
2022-11-14T15:47:41.038Z,27.98
2022-11-14T15:50:17.248Z,24.42
2022-11-14T15:52:58.558Z,25.52
2022-11-14T15:55:26.683Z,26.98
2022-11-14T15:58:13.608Z,27.80
2022-11-14T16:00:51.345Z,26.35
2022-11-14T16:03:20.571Z,28.98
2022-11-14T16:05:56.115Z,26.92
2022-11-14T16:08:24.502Z,30.25
2022-11-14T16:10:51.603Z,29.27
2022-11-14T16:13:21.031Z,32.80
2022-11-14T16:15:56.015Z,29.90
2022-11-14T16:18:25.841Z,33.15
2022-11-14T16:20:53.053Z,33.60
2022-11-14T16:23:22.494Z,32.22
2022-11-14T16:25:51.379Z,33.55
2022-11-14T16:28:18.856Z,36.08
2022-11-14T16:30:48.204Z,34.60
2022-11-14T16:33:15.428Z,35.10
2022-11-14T16:35:42.830Z,35.35
2022-11-14T16:38:13.528Z,36.25
2022-11-14T16:40:47.512Z,33.92
2022-11-14T16:43:16.974Z,36.80
2022-11-14T16:45:44.354Z,33.42
2022-11-14T16:48:14.412Z,34.33
2022-11-14T16:50:42.819Z,34.67
2022-11-14T16:53:15.732Z,36.90
2022-11-14T16:55:47.087Z,36.40
2022-11-14T16:58:41.548Z,35.85
2022-11-14T17:04:05.515Z,34.65
2022-11-14T17:06:39.556Z,33.70
2022-11-14T17:09:25.930Z,34.60
2022-11-14T17:12:28.130Z,36.40
2022-11-14T17:17:57.595Z,36.13
2022-11-14T17:20:41.649Z,35.47
2022-11-14T17:26:43.316Z,35.20
2022-11-14T17:29:18.357Z,36.42
2022-11-14T17:32:06.714Z,34.72
2022-11-14T17:40:15.280Z,35.72
2022-11-14T17:42:50.146Z,34.53
2022-11-14T17:48:07.651Z,35.38
2022-11-14T17:58:55.745Z,31.55
2022-11-14T18:12:34.952Z,31.00
2022-11-14T18:20:48.561Z,33.83
2022-11-14T18:28:57.322Z,35.40
2022-11-14T18:34:37.356Z,34.70
2022-11-14T18:43:21.610Z,36.15
2022-11-14T18:48:37.884Z,37.25
2022-11-14T19:02:13.617Z,36.92
2022-11-14T19:04:48.322Z,38.30
2022-11-14T19:10:10.900Z,39.35
2022-11-14T19:12:44.888Z,38.63
2022-11-14T19:18:16.876Z,38.13
2022-11-14T19:20:47.963Z,41.28
2022-11-14T19:23:15.084Z,42.53
2022-11-14T19:25:43.632Z,41.95
2022-11-14T19:28:17.521Z,42.08
2022-11-14T19:30:46.158Z,40.90
2022-11-14T19:33:15.215Z,39.47
2022-11-14T19:35:42.471Z,38.38
2022-11-14T19:38:18.457Z,39.77
2022-11-14T19:40:51.771Z,39.35
2022-11-14T19:43:22.815Z,40.75
2022-11-14T19:45:55.896Z,40.13
2022-11-14T19:48:23.252Z,38.92
2022-11-14T19:51:09.943Z,42.25
2022-11-14T19:53:41.401Z,39.35
2022-11-14T19:56:14.021Z,40.33
2022-11-14T19:58:44.822Z,42.83
2022-11-14T20:01:19.756Z,41.47
2022-11-14T20:04:04.536Z,40.17
2022-11-14T20:06:35.952Z,43.08
2022-11-14T20:09:14.532Z,42.55
2022-11-14T20:11:43.841Z,43.58
2022-11-14T20:14:13.196Z,42.60
2022-11-14T20:16:49.830Z,42.38
2022-11-14T20:19:17.857Z,39.30
2022-11-14T20:21:47.184Z,43.60
2022-11-14T20:24:25.424Z,43.10
2022-11-14T20:26:56.820Z,41.58
2022-11-14T20:29:24.950Z,41.25
2022-11-14T20:31:53.251Z,41.80
2022-11-14T20:34:22.535Z,39.38
2022-11-14T20:39:40.485Z,38.63
2022-11-14T20:42:11.966Z,37.42
2022-11-14T20:44:40.821Z,36.85
2022-11-14T20:47:11.065Z,39.63
2022-11-14T20:49:39.086Z,37.70
2022-11-14T20:52:09.929Z,38.20
2022-11-14T20:54:38.406Z,37.42
2022-11-14T20:57:06.984Z,41.03
2022-11-14T20:59:37.836Z,39.28
2022-11-14T21:02:05.965Z,38.15
2022-11-14T21:04:36.390Z,38.45
2022-11-14T21:07:09.037Z,39.42
2022-11-14T21:09:40.192Z,40.47
2022-11-14T21:12:09.517Z,38.38
2022-11-14T21:14:36.999Z,39.17
2022-11-14T21:17:07.605Z,39.92
2022-11-14T21:19:37.247Z,41.10
2022-11-14T21:22:04.888Z,39.17
2022-11-14T21:24:39.974Z,41.83
2022-11-14T21:27:09.449Z,44.53
2022-11-14T21:29:40.113Z,41.47
2022-11-14T21:32:09.682Z,40.80
2022-11-14T21:34:36.590Z,39.05
2022-11-14T21:37:21.771Z,39.65
2022-11-14T21:39:50.778Z,44.83
2022-11-14T21:42:20.733Z,42.00
2022-11-14T21:44:49.928Z,41.72
2022-11-14T21:47:20.905Z,41.10
2022-11-14T21:49:48.326Z,43.28
2022-11-14T21:55:02.701Z,43.08
2022-11-14T21:57:29.507Z,43.42
2022-11-14T21:59:57.015Z,45.75
2022-11-14T22:02:43.243Z,43.90
2022-11-14T22:05:15.725Z,50.55
2022-11-14T22:07:43.124Z,48.80
2022-11-14T22:10:12.215Z,50.20
2022-11-14T22:12:42.534Z,45.65
2022-11-14T22:17:57.162Z,50.75
2022-11-14T22:20:25.568Z,52.45
2022-11-14T22:22:56.143Z,48.83
2022-11-14T22:25:25.184Z,51.60
2022-11-14T22:27:56.615Z,55.55
2022-11-14T22:33:05.886Z,52.08
2022-11-14T22:35:38.939Z,53.55
2022-11-14T22:38:13.583Z,54.80
2022-11-14T22:40:43.296Z,57.50
2022-11-14T22:43:11.093Z,54.05
2022-11-14T22:45:41.354Z,56.67
2022-11-14T22:48:10.902Z,55.30
2022-11-14T22:50:40.129Z,58.38
2022-11-14T22:53:09.174Z,57.33
2022-11-14T22:55:37.799Z,56.30
2022-11-14T22:58:11.998Z,57.45
2022-11-14T23:00:51.050Z,60.38
2022-11-14T23:03:36.303Z,63.50
2022-11-14T23:06:42.334Z,60.45
2022-11-14T23:09:26.050Z,66.00
2022-11-14T23:11:55.280Z,62.28
2022-11-14T23:14:27.523Z,62.90
2022-11-14T23:17:02.459Z,59.10
2022-11-14T23:19:33.735Z,60.60
2022-11-14T23:22:01.284Z,63.72
2022-11-14T23:24:29.610Z,63.50
2022-11-14T23:26:56.921Z,60.50
2022-11-14T23:29:25.306Z,58.67
2022-11-14T23:32:04.729Z,59.33
2022-11-14T23:34:36.859Z,57.95
2022-11-14T23:37:04.893Z,61.55
2022-11-14T23:39:32.077Z,60.10
2022-11-14T23:41:58.911Z,60.90
2022-11-14T23:44:26.888Z,60.35
2022-11-14T23:46:56.448Z,57.30
2022-11-14T23:49:25.132Z,60.63
2022-11-14T23:52:00.561Z,62.20
2022-11-14T23:54:29.627Z,60.42
2022-11-14T23:57:00.046Z,58.05
2022-11-14T23:59:31.658Z,57.38
